sensor_id;sensor_type;location;lat;lon;timestamp;pressure;altitude;pressure_sealevel;temperature;humidity
38558;BME280;24333;42.626;23.308;2023-03-13T00:04:22;92361.69;;;-1.20;99.66
38558;BME280;24333;42.626;23.308;2023-03-13T00:06:47;92365.34;;;-1.15;100.00
38558;BME280;24333;42.626;23.308;2023-03-13T00:09:14;92369.63;;;-1.14;98.78
38558;BME280;24333;42.626;23.308;2023-03-13T00:11:40;92367.03;;;-1.20;95.07
38558;BME280;24333;42.626;23.308;2023-03-13T00:14:06;92361.97;;;-1.21;95.49
38558;BME280;24333;42.626;23.308;2023-03-13T00:16:32;92369.72;;;-1.20;97.16
38558;BME280;24333;42.626;23.308;2023-03-13T00:18:59;92378.53;;;-1.19;100.00
38558;BME280;24333;42.626;23.308;2023-03-13T00:21:27;92361.88;;;-1.30;100.00
38558;BME280;24333;42.626;23.308;2023-03-13T00:23:53;92369.13;;;-1.31;98.98
38558;BME280;24333;42.626;23.308;2023-03-13T00:26:21;92369.13;;;-1.31;99.34
38558;BME280;24333;42.626;23.308;2023-03-13T00:28:47;92383.50;;;-1.26;98.77
38558;BME280;24333;42.626;23.308;2023-03-13T00:31:16;92372.09;;;-1.32;99.53
38558;BME280;24333;42.626;23.308;2023-03-13T00:33:46;92383.50;;;-1.26;99.89
38558;BME280;24333;42.626;23.308;2023-03-13T00:36:21;92375.56;;;-1.32;100.00
38558;BME280;24333;42.626;23.308;2023-03-13T00:38:50;92379.50;;;-1.29;100.00
38558;BME280;24333;42.626;23.308;2023-03-13T00:41:20;92372.78;;;-1.40;98.97
38558;BME280;24333;42.626;23.308;2023-03-13T00:43:47;92387.84;;;-1.31;98.49
38558;BME280;24333;42.626;23.308;2023-03-13T00:46:15;92382.28;;;-1.34;98.12
38558;BME280;24333;42.626;23.308;2023-03-13T00:48:40;92387.34;;;-1.33;98.03
38558;BME280;24333;42.626;23.308;2023-03-13T00:51:06;92362.88;;;-1.54;95.17
38558;BME280;24333;42.626;23.308;2023-03-13T00:53:47;92345.63;;;-1.62;97.83
38558;BME280;24333;42.626;23.308;2023-03-13T00:56:27;92365.44;;;-1.49;95.91
38558;BME280;24333;42.626;23.308;2023-03-13T00:58:52;92347.41;;;-1.57;95.24
38558;BME280;24333;42.626;23.308;2023-03-13T01:01:28;92365.72;;;-1.50;95.17
38558;BME280;24333;42.626;23.308;2023-03-13T01:04:00;92345.41;;;-1.65;95.54
38558;BME280;24333;42.626;23.308;2023-03-13T01:06:28;92381.69;;;-1.45;94.63
38558;BME280;24333;42.626;23.308;2023-03-13T01:08:53;92374.34;;;-1.53;93.26
38558;BME280;24333;42.626;23.308;2023-03-13T01:11:39;92380.31;;;-1.42;95.76
38558;BME280;24333;42.626;23.308;2023-03-13T01:14:08;92377.63;;;-1.42;97.75
38558;BME280;24333;42.626;23.308;2023-03-13T01:16:35;92369.88;;;-1.44;98.32
38558;BME280;24333;42.626;23.308;2023-03-13T01:19:04;92369.59;;;-1.42;100.00
38558;BME280;24333;42.626;23.308;2023-03-13T01:21:38;92374.97;;;-1.42;100.00
38558;BME280;24333;42.626;23.308;2023-03-13T01:24:13;92380.91;;;-1.46;100.00
38558;BME280;24333;42.626;23.308;2023-03-13T01:26:47;92377.13;;;-1.44;100.00
38558;BME280;24333;42.626;23.308;2023-03-13T01:29:13;92378.81;;;-1.49;100.00
38558;BME280;24333;42.626;23.308;2023-03-13T01:31:39;92375.16;;;-1.53;100.00
38558;BME280;24333;42.626;23.308;2023-03-13T01:34:05;92375.16;;;-1.53;100.00
38558;BME280;24333;42.626;23.308;2023-03-13T01:36:31;92379.50;;;-1.57;100.00
38558;BME280;24333;42.626;23.308;2023-03-13T01:38:59;92386.03;;;-1.49;100.00
38558;BME280;24333;42.626;23.308;2023-03-13T02:17:39;92359.97;;;-2.05;100.00
38558;BME280;24333;42.626;23.308;2023-03-13T03:27:57;92446.16;;;-2.51;100.00
38558;BME280;24333;42.626;23.308;2023-03-13T03:31:15;92482.22;;;-2.29;100.00
38558;BME280;24333;42.626;23.308;2023-03-13T04:31:54;92556.50;;;-2.56;100.00
38558;BME280;24333;42.626;23.308;2023-03-13T04:34:20;92567.50;;;-2.57;100.00
38558;BME280;24333;42.626;23.308;2023-03-13T04:36:48;92560.38;;;-2.67;100.00
38558;BME280;24333;42.626;23.308;2023-03-13T04:39:14;92554.53;;;-2.69;100.00
38558;BME280;24333;42.626;23.308;2023-03-13T04:41:40;92552.25;;;-2.81;100.00
38558;BME280;24333;42.626;23.308;2023-03-13T04:44:06;92552.81;;;-2.84;100.00
38558;BME280;24333;42.626;23.308;2023-03-13T04:53:14;92583.09;;;-2.70;100.00
38558;BME280;24333;42.626;23.308;2023-03-13T04:55:40;92567.75;;;-2.83;100.00
38558;BME280;24333;42.626;23.308;2023-03-13T04:58:06;92573.28;;;-2.74;100.00
38558;BME280;24333;42.626;23.308;2023-03-13T05:00:32;92581.41;;;-2.60;100.00
38558;BME280;24333;42.626;23.308;2023-03-13T05:03:02;92601.06;;;-2.51;100.00
38558;BME280;24333;42.626;23.308;2023-03-13T05:08:38;92577.53;;;-2.49;100.00
38558;BME280;24333;42.626;23.308;2023-03-13T05:11:04;92598.50;;;-2.37;100.00
38558;BME280;24333;42.626;23.308;2023-03-13T05:13:31;92573.72;;;-2.43;100.00
38558;BME280;24333;42.626;23.308;2023-03-13T05:22:53;92580.50;;;-2.26;100.00
38558;BME280;24333;42.626;23.308;2023-03-13T05:25:38;92591.56;;;-2.14;100.00
38558;BME280;24333;42.626;23.308;2023-03-13T05:34:06;92608.06;;;-1.87;100.00
38558;BME280;24333;42.626;23.308;2023-03-13T05:36:32;92618.31;;;-1.76;100.00
38558;BME280;24333;42.626;23.308;2023-03-13T05:38:57;92617.75;;;-1.72;100.00
38558;BME280;24333;42.626;23.308;2023-03-13T05:41:23;92630.84;;;-1.71;100.00
38558;BME280;24333;42.626;23.308;2023-03-13T05:43:50;92624.09;;;-1.68;98.12
38558;BME280;24333;42.626;23.308;2023-03-13T05:46:17;92628.69;;;-1.50;97.69
38558;BME280;24333;42.626;23.308;2023-03-13T05:48:43;92624.63;;;-1.47;97.86
38558;BME280;24333;42.626;23.308;2023-03-13T05:51:12;92627.50;;;-1.43;96.21
38558;BME280;24333;42.626;23.308;2023-03-13T05:53:38;92640.72;;;-1.33;94.37
38558;BME280;24333;42.626;23.308;2023-03-13T05:56:03;92630.09;;;-1.38;94.73
38558;BME280;24333;42.626;23.308;2023-03-13T05:58:29;92632.78;;;-1.38;92.74
38558;BME280;24333;42.626;23.308;2023-03-13T06:00:54;92632.63;;;-1.47;93.70
38558;BME280;24333;42.626;23.308;2023-03-13T06:03:20;92630.03;;;-1.52;93.29
38558;BME280;24333;42.626;23.308;2023-03-13T06:05:45;92642.75;;;-1.44;96.00
38558;BME280;24333;42.626;23.308;2023-03-13T06:08:11;92637.91;;;-1.42;95.86
38558;BME280;24333;42.626;23.308;2023-03-13T06:10:36;92657.44;;;-1.22;97.28
38558;BME280;24333;42.626;23.308;2023-03-13T06:13:02;92653.09;;;-1.37;95.96
38558;BME280;24333;42.626;23.308;2023-03-13T06:15:29;92647.84;;;-1.42;95.66
38558;BME280;24333;42.626;23.308;2023-03-13T06:17:55;92659.38;;;-1.28;95.26
38558;BME280;24333;42.626;23.308;2023-03-13T06:20:20;92644.06;;;-1.22;95.26
38558;BME280;24333;42.626;23.308;2023-03-13T06:22:46;92648.38;;;-1.07;92.69
38558;BME280;24333;42.626;23.308;2023-03-13T06:25:12;92633.69;;;-1.10;92.40
38558;BME280;24333;42.626;23.308;2023-03-13T06:27:43;92644.13;;;-1.08;95.97
38558;BME280;24333;42.626;23.308;2023-03-13T06:30:10;92652.75;;;-1.11;94.08
38558;BME280;24333;42.626;23.308;2023-03-13T06:32:37;92660.09;;;-1.03;94.94
38558;BME280;24333;42.626;23.308;2023-03-13T06:35:05;92662.69;;;-0.98;91.48
38558;BME280;24333;42.626;23.308;2023-03-13T06:37:32;92657.41;;;-1.03;94.23
38558;BME280;24333;42.626;23.308;2023-03-13T06:39:58;92621.97;;;-1.14;94.07
38558;BME280;24333;42.626;23.308;2023-03-13T06:42:23;92633.88;;;-0.87;94.91
38558;BME280;24333;42.626;23.308;2023-03-13T06:44:49;92628.94;;;-0.80;94.28
38558;BME280;24333;42.626;23.308;2023-03-13T06:47:14;92631.38;;;-0.64;92.18
38558;BME280;24333;42.626;23.308;2023-03-13T06:49:40;92625.81;;;-0.54;92.82
38558;BME280;24333;42.626;23.308;2023-03-13T06:52:05;92631.09;;;-0.49;91.74
38558;BME280;24333;42.626;23.308;2023-03-13T06:54:30;92637.41;;;-0.59;91.07
38558;BME280;24333;42.626;23.308;2023-03-13T06:56:56;92644.66;;;-0.59;91.70
38558;BME280;24333;42.626;23.308;2023-03-13T06:59:21;92648.03;;;-0.53;92.16
38558;BME280;24333;42.626;23.308;2023-03-13T07:01:46;92645.28;;;-0.48;91.67
38558;BME280;24333;42.626;23.308;2023-03-13T07:04:12;92642.03;;;-0.31;89.40
38558;BME280;24333;42.626;23.308;2023-03-13T07:06:38;92641.13;;;-0.26;86.94
38558;BME280;24333;42.626;23.308;2023-03-13T07:09:03;92640.94;;;-0.30;87.63
38558;BME280;24333;42.626;23.308;2023-03-13T07:11:29;92646.41;;;-0.35;85.85
38558;BME280;24333;42.626;23.308;2023-03-13T07:13:55;92638.84;;;-0.33;86.77
38558;BME280;24333;42.626;23.308;2023-03-13T07:16:21;92634.28;;;-0.33;86.87
38558;BME280;24333;42.626;23.308;2023-03-13T07:18:46;92655.13;;;-0.30;86.62
38558;BME280;24333;42.626;23.308;2023-03-13T07:21:12;92654.44;;;-0.21;86.09
38558;BME280;24333;42.626;23.308;2023-03-13T07:23:38;92637.47;;;-0.17;86.76
38558;BME280;24333;42.626;23.308;2023-03-13T07:26:06;92629.53;;;-0.22;84.73
38558;BME280;24333;42.626;23.308;2023-03-13T07:28:35;92636.16;;;-0.05;83.99
38558;BME280;24333;42.626;23.308;2023-03-13T07:31:11;92644.41;;;-0.02;85.00
38558;BME280;24333;42.626;23.308;2023-03-13T07:33:37;92635.56;;;-0.02;85.53
38558;BME280;24333;42.626;23.308;2023-03-13T07:36:03;92626.44;;;-0.01;83.68
38558;BME280;24333;42.626;23.308;2023-03-13T07:38:28;92636.06;;;0.14;83.71
38558;BME280;24333;42.626;23.308;2023-03-13T07:40:57;92644.59;;;0.16;84.04
38558;BME280;24333;42.626;23.308;2023-03-13T07:43:23;92641.53;;;0.09;82.72
38558;BME280;24333;42.626;23.308;2023-03-13T07:45:53;92649.09;;;0.21;83.40
38558;BME280;24333;42.626;23.308;2023-03-13T07:48:39;92644.09;;;0.14;81.82
38558;BME280;24333;42.626;23.308;2023-03-13T07:51:31;92644.31;;;0.32;82.29
38558;BME280;24333;42.626;23.308;2023-03-13T07:53:57;92654.41;;;0.49;80.76
38558;BME280;24333;42.626;23.308;2023-03-13T07:56:23;92639.00;;;0.54;81.23
38558;BME280;24333;42.626;23.308;2023-03-13T07:58:49;92651.88;;;0.66;79.22
38558;BME280;24333;42.626;23.308;2023-03-13T08:01:26;92644.41;;;0.77;77.62
38558;BME280;24333;42.626;23.308;2023-03-13T08:03:52;92633.97;;;0.98;78.03
38558;BME280;24333;42.626;23.308;2023-03-13T08:06:23;92636.94;;;1.11;74.95
38558;BME280;24333;42.626;23.308;2023-03-13T08:08:51;92639.97;;;1.18;74.85
38558;BME280;24333;42.626;23.308;2023-03-13T08:11:38;92635.59;;;1.22;76.39
38558;BME280;24333;42.626;23.308;2023-03-13T08:14:05;92635.19;;;1.38;77.17
38558;BME280;24333;42.626;23.308;2023-03-13T08:16:33;92638.25;;;1.45;75.50
38558;BME280;24333;42.626;23.308;2023-03-13T08:19:17;92633.09;;;1.26;76.00
38558;BME280;24333;42.626;23.308;2023-03-13T08:22:05;92632.09;;;1.44;74.69
38558;BME280;24333;42.626;23.308;2023-03-13T08:24:30;92640.25;;;1.62;74.78
38558;BME280;24333;42.626;23.308;2023-03-13T08:26:55;92626.69;;;1.76;75.72
38558;BME280;24333;42.626;23.308;2023-03-13T08:29:21;92631.34;;;1.93;74.00
38558;BME280;24333;42.626;23.308;2023-03-13T08:31:48;92635.53;;;1.99;75.82
38558;BME280;24333;42.626;23.308;2023-03-13T08:34:16;92642.00;;;1.98;70.67
38558;BME280;24333;42.626;23.308;2023-03-13T08:37:04;92646.00;;;2.10;73.42
38558;BME280;24333;42.626;23.308;2023-03-13T08:39:30;92632.34;;;1.97;69.81
38558;BME280;24333;42.626;23.308;2023-03-13T08:41:55;92645.31;;;1.95;71.61
38558;BME280;24333;42.626;23.308;2023-03-13T08:44:21;92645.06;;;2.14;72.55
38558;BME280;24333;42.626;23.308;2023-03-13T08:50:23;92649.69;;;2.23;69.09
38558;BME280;24333;42.626;23.308;2023-03-13T08:53:07;92647.78;;;2.23;71.25
38558;BME280;24333;42.626;23.308;2023-03-13T08:55:38;92632.41;;;2.15;68.75
38558;BME280;24333;42.626;23.308;2023-03-13T08:58:03;92636.06;;;2.28;68.93
38558;BME280;24333;42.626;23.308;2023-03-13T09:00:28;92630.66;;;2.19;67.46
38558;BME280;24333;42.626;23.308;2023-03-13T09:02:56;92636.44;;;2.44;71.53
38558;BME280;24333;42.626;23.308;2023-03-13T09:05:22;92642.97;;;2.69;71.02
38558;BME280;24333;42.626;23.308;2023-03-13T09:07:56;92635.38;;;2.80;67.37
38558;BME280;24333;42.626;23.308;2023-03-13T09:10:22;92639.97;;;2.88;67.61
38558;BME280;24333;42.626;23.308;2023-03-13T09:12:48;92643.78;;;2.70;67.50
38558;BME280;24333;42.626;23.308;2023-03-13T09:15:13;92636.97;;;2.81;69.03
38558;BME280;24333;42.626;23.308;2023-03-13T09:18:03;92640.47;;;3.08;68.63
38558;BME280;24333;42.626;23.308;2023-03-13T09:21:01;92642.06;;;3.09;67.33
38558;BME280;24333;42.626;23.308;2023-03-13T09:23:26;92629.34;;;3.36;68.77
38558;BME280;24333;42.626;23.308;2023-03-13T09:25:54;92635.69;;;3.40;63.58
38558;BME280;24333;42.626;23.308;2023-03-13T09:28:20;92608.09;;;3.43;65.24
38558;BME280;24333;42.626;23.308;2023-03-13T09:31:28;92633.88;;;3.71;64.17
38558;BME280;24333;42.626;23.308;2023-03-13T09:33:54;92625.31;;;3.69;62.16
38558;BME280;24333;42.626;23.308;2023-03-13T09:36:38;92636.25;;;3.72;62.13
38558;BME280;24333;42.626;23.308;2023-03-13T09:39:04;92642.28;;;3.69;61.55
38558;BME280;24333;42.626;23.308;2023-03-13T09:41:52;92638.13;;;3.81;62.73
38558;BME280;24333;42.626;23.308;2023-03-13T09:44:32;92645.84;;;4.09;62.68
38558;BME280;24333;42.626;23.308;2023-03-13T09:47:40;92640.34;;;4.26;60.97
38558;BME280;24333;42.626;23.308;2023-03-13T09:50:46;92641.91;;;4.36;59.89
38558;BME280;24333;42.626;23.308;2023-03-13T10:07:08;92628.53;;;4.91;58.60
38558;BME280;24333;42.626;23.308;2023-03-13T10:09:34;92631.06;;;4.96;57.99
38558;BME280;24333;42.626;23.308;2023-03-13T10:17:46;92625.00;;;4.99;57.83
38558;BME280;24333;42.626;23.308;2023-03-13T10:20:47;92609.69;;;5.03;59.46
38558;BME280;24333;42.626;23.308;2023-03-13T10:23:39;92604.72;;;5.27;59.38
38558;BME280;24333;42.626;23.308;2023-03-13T10:26:40;92593.06;;;5.47;60.68
38558;BME280;24333;42.626;23.308;2023-03-13T10:29:19;92603.03;;;5.56;56.87
38558;BME280;24333;42.626;23.308;2023-03-13T10:34:23;92581.00;;;6.90;78.70
38558;BME280;24333;42.626;23.308;2023-03-13T10:37:15;92586.50;;;6.94;55.05
38558;BME280;24333;42.626;23.308;2023-03-13T10:39:41;92581.84;;;7.07;54.00
38558;BME280;24333;42.626;23.308;2023-03-13T10:42:18;92574.78;;;7.18;55.87
38558;BME280;24333;42.626;23.308;2023-03-13T10:44:45;92576.41;;;7.07;54.35
38558;BME280;24333;42.626;23.308;2023-03-13T10:47:44;92572.56;;;7.08;51.72
38558;BME280;24333;42.626;23.308;2023-03-13T10:53:35;92566.06;;;6.97;55.96
38558;BME280;24333;42.626;23.308;2023-03-13T10:56:11;92564.28;;;6.76;54.46
38558;BME280;24333;42.626;23.308;2023-03-13T10:58:41;92567.47;;;6.53;53.09
38558;BME280;24333;42.626;23.308;2023-03-13T11:03:51;92571.53;;;6.72;53.79
38558;BME280;24333;42.626;23.308;2023-03-13T11:06:30;92564.28;;;6.76;52.79
38558;BME280;24333;42.626;23.308;2023-03-13T11:09:16;92549.44;;;6.45;53.13
38558;BME280;24333;42.626;23.308;2023-03-13T11:11:52;92537.81;;;6.44;54.23
38558;BME280;24333;42.626;23.308;2023-03-13T11:14:21;92533.38;;;6.52;52.72
38558;BME280;24333;42.626;23.308;2023-03-13T11:20:26;92538.25;;;7.00;55.89
38558;BME280;24333;42.626;23.308;2023-03-13T11:25:29;92529.88;;;7.05;59.48
38558;BME280;24333;42.626;23.308;2023-03-13T11:31:09;92520.81;;;7.90;58.87
38558;BME280;24333;42.626;23.308;2023-03-13T11:36:45;92518.09;;;8.06;51.97
38558;BME280;24333;42.626;23.308;2023-03-13T12:02:17;92477.13;;;7.47;50.75
38558;BME280;24333;42.626;23.308;2023-03-13T12:10:04;92466.19;;;8.27;57.63
38558;BME280;24333;42.626;23.308;2023-03-13T12:13:28;92455.25;;;8.59;61.79
38558;BME280;24333;42.626;23.308;2023-03-13T12:22:31;92458.22;;;7.66;50.78
38558;BME280;24333;42.626;23.308;2023-03-13T12:36:01;92452.06;;;7.53;53.60
38558;BME280;24333;42.626;23.308;2023-03-13T13:01:18;92433.06;;;7.86;50.22
38558;BME280;24333;42.626;23.308;2023-03-13T13:04:16;92464.50;;;8.03;50.33
38558;BME280;24333;42.626;23.308;2023-03-13T13:06:55;92469.06;;;7.82;48.15
38558;BME280;24333;42.626;23.308;2023-03-13T13:09:30;92467.59;;;7.85;50.29
38558;BME280;24333;42.626;23.308;2023-03-13T13:12:20;92449.34;;;7.86;51.92
38558;BME280;24333;42.626;23.308;2023-03-13T13:17:30;92439.16;;;8.15;53.10
38558;BME280;24333;42.626;23.308;2023-03-13T13:23:25;92456.13;;;8.28;49.27
38558;BME280;24333;42.626;23.308;2023-03-13T13:25:54;92439.72;;;8.04;48.99
38558;BME280;24333;42.626;23.308;2023-03-13T13:28:33;92440.44;;;8.21;48.67
38558;BME280;24333;42.626;23.308;2023-03-13T15:30:28;92410.38;;;6.98;56.25
38558;BME280;24333;42.626;23.308;2023-03-13T15:32:54;92422.97;;;6.90;56.67
38558;BME280;24333;42.626;23.308;2023-03-13T15:35:28;92428.44;;;6.77;57.71
38558;BME280;24333;42.626;23.308;2023-03-13T15:37:55;92432.50;;;6.71;57.22
38558;BME280;24333;42.626;23.308;2023-03-13T15:40:22;92427.25;;;6.62;57.55
38558;BME280;24333;42.626;23.308;2023-03-13T15:42:49;92436.06;;;6.59;58.15
38558;BME280;24333;42.626;23.308;2023-03-13T15:45:15;92417.38;;;6.42;58.16
38558;BME280;24333;42.626;23.308;2023-03-13T15:47:40;92431.19;;;6.36;58.84
38558;BME280;24333;42.626;23.308;2023-03-13T15:50:11;92436.03;;;6.31;59.37
38558;BME280;24333;42.626;23.308;2023-03-13T15:52:58;92432.88;;;6.29;59.09
38558;BME280;24333;42.626;23.308;2023-03-13T15:55:26;92430.66;;;6.18;59.85
38558;BME280;24333;42.626;23.308;2023-03-13T15:57:53;92428.44;;;6.08;60.37
38558;BME280;24333;42.626;23.308;2023-03-13T16:00:21;92433.72;;;6.04;60.96
38558;BME280;24333;42.626;23.308;2023-03-13T16:02:48;92425.59;;;5.92;61.01
38558;BME280;24333;42.626;23.308;2023-03-13T16:05:13;92429.31;;;5.87;62.23
38558;BME280;24333;42.626;23.308;2023-03-13T16:54:58;92435.78;;;4.32;58.20
38558;BME280;24333;42.626;23.308;2023-03-13T17:28:51;92450.63;;;4.59;42.97
38558;BME280;24333;42.626;23.308;2023-03-13T17:31:18;92447.03;;;4.55;43.54
38558;BME280;24333;42.626;23.308;2023-03-13T17:33:45;92438.66;;;4.48;43.30
38558;BME280;24333;42.626;23.308;2023-03-13T17:36:21;92438.66;;;4.48;43.42
38558;BME280;24333;42.626;23.308;2023-03-13T17:38:50;92415.75;;;4.33;42.42
38558;BME280;24333;42.626;23.308;2023-03-13T17:41:47;92453.66;;;4.58;42.31
38558;BME280;24333;42.626;23.308;2023-03-13T17:47:33;92458.75;;;4.59;42.57
38558;BME280;24333;42.626;23.308;2023-03-13T17:49:59;92457.16;;;4.58;42.90
38558;BME280;24333;42.626;23.308;2023-03-13T17:52:25;92465.41;;;4.62;43.14
38558;BME280;24333;42.626;23.308;2023-03-13T17:54:50;92454.78;;;4.57;43.91
38558;BME280;24333;42.626;23.308;2023-03-13T17:57:18;92467.28;;;4.61;42.41
38558;BME280;24333;42.626;23.308;2023-03-13T17:59:44;92460.84;;;4.54;41.61
